Time;durP1;ratioP1;P1;durP2;ratioP2;P2;SDS_P1;SDS_P2;PMS_P1;PMS_P2;Temp;Humidity;BMP_temperature;BMP_pressure;BME280_temperature;BME280_humidity;BME280_pressure;Samples;Min_cycle;Max_cycle;Signal;HPM_P1;HPM_P2
2023/07/02 00:00:09;;;;;;;10.23;5.78;;;;;;;27.38;46.77;97627.19;5075591;28;20063;-69
2023/07/02 00:02:37;;;;;;;12.70;5.60;;;;;;;27.34;47.42;97619.97;5060025;28;20056;-69
2023/07/02 00:05:05;;;;;;;10.23;5.78;;;;;;;27.24;47.65;97626.44;5059864;28;20066;-68
2023/07/02 00:07:32;;;;;;;9.30;6.13;;;;;;;27.06;48.00;97618.50;5076219;28;20407;-68
2023/07/02 00:09:58;;;;;;;6.75;5.65;;;;;;;27.12;47.62;97622.69;5059605;28;20086;-68
2023/07/02 00:12:24;;;;;;;9.48;5.85;;;;;;;27.08;47.86;97617.06;5058295;28;20036;-68
2023/07/02 00:14:52;;;;;;;8.43;5.90;;;;;;;27.04;48.15;97616.09;5042497;28;20576;-68
2023/07/02 00:17:20;;;;;;;9.55;6.10;;;;;;;27.12;48.24;97615.34;5059813;28;20644;-68
2023/07/02 00:19:46;;;;;;;12.85;6.03;;;;;;;26.99;48.33;97624.38;5042420;28;20054;-68
2023/07/02 00:22:12;;;;;;;10.88;6.10;;;;;;;27.09;48.21;97620.59;5059764;28;20039;-72
2023/07/02 00:24:38;;;;;;;8.15;5.50;;;;;;;27.07;48.33;97622.81;5059227;28;20128;-68
2023/07/02 00:27:04;;;;;;;8.73;6.25;;;;;;;27.05;48.34;97630.50;5059251;28;20044;-68
2023/07/02 00:29:30;;;;;;;8.52;5.78;;;;;;;27.00;48.60;97630.66;5042373;28;20065;-68
2023/07/02 00:31:56;;;;;;;9.90;6.35;;;;;;;26.91;48.66;97616.19;5043703;28;20142;-68
2023/07/02 00:34:23;;;;;;;9.15;5.80;;;;;;;27.02;48.59;97633.84;5093275;28;20050;-68
2023/07/02 00:36:49;;;;;;;9.52;5.85;;;;;;;27.02;48.55;97636.56;5043521;28;20126;-68
2023/07/02 00:39:17;;;;;;;7.03;6.00;;;;;;;27.29;48.06;97641.91;5044161;28;20052;-69
2023/07/02 00:41:46;;;;;;;11.38;5.90;;;;;;;27.31;48.00;97637.72;5059743;28;20097;-70
2023/07/02 00:44:13;;;;;;;8.70;5.63;;;;;;;27.15;48.59;97636.50;5093770;28;20167;-69
2023/07/02 00:46:39;;;;;;;7.32;6.10;;;;;;;27.05;48.83;97633.22;5060598;28;20052;-69
2023/07/02 00:49:05;;;;;;;10.98;6.32;;;;;;;27.01;48.72;97640.41;5076620;28;20364;-69
2023/07/02 00:51:31;;;;;;;11.15;6.10;;;;;;;26.91;48.75;97627.06;5060274;28;20036;-69
2023/07/02 00:53:58;;;;;;;19.20;8.02;;;;;;;27.23;48.49;97651.28;5076830;28;20051;-68
2023/07/02 00:56:25;;;;;;;7.53;6.10;;;;;;;27.18;48.86;97651.41;5043002;28;20093;-68
2023/07/02 00:58:53;;;;;;;7.10;6.28;;;;;;;27.13;49.12;97638.72;5042292;28;20079;-69
2023/07/02 01:01:22;;;;;;;9.32;5.93;;;;;;;27.05;49.41;97627.78;5058748;28;20513;-68
2023/07/02 01:04:03;;;;;;;10.23;6.22;;;;;;;27.25;49.26;97647.16;5073957;28;20044;-68
2023/07/02 01:06:31;;;;;;;;;;;;;;;27.40;48.46;97648.69;5074789;28;20048;-69
2023/07/02 01:09:00;;;;;;;10.68;6.43;;;;;;;27.11;49.23;97656.53;5040718;28;19927;-68
2023/07/02 01:11:31;;;;;;;7.07;6.38;;;;;;;27.14;49.33;97642.28;5017262;28;20049;-69
2023/07/02 01:14:02;;;;;;;7.18;6.20;;;;;;;27.18;49.30;97660.41;5001122;28;20076;-68
2023/07/02 01:16:32;;;;;;;15.25;7.50;;;;;;;26.94;49.74;97640.84;5017155;28;20432;-68
2023/07/02 01:19:03;;;;;;;8.25;5.93;;;;;;;26.97;49.70;97658.53;5001103;28;20068;-69
2023/07/02 01:21:32;;;;;;;12.73;6.38;;;;;;;26.89;49.80;97656.53;5049644;28;20072;-68
2023/07/02 01:24:00;;;;;;;13.18;6.47;;;;;;;26.71;50.25;97649.38;5016471;28;20056;-69
2023/07/02 01:26:33;;;;;;;7.25;6.10;;;;;;;26.75;51.41;97634.00;5033008;28;20057;-69
2023/07/02 01:29:19;;;;;;;7.85;6.05;;;;;;;26.94;51.03;97653.69;5016926;28;20148;-69
2023/07/02 01:31:45;;;;;;;12.40;6.55;;;;;;;26.67;50.99;97651.09;5016450;28;20528;-69
2023/07/02 01:34:12;;;;;;;12.25;6.95;;;;;;;26.59;51.75;97652.59;5016652;28;20064;-69
2023/07/02 01:36:38;;;;;;;9.20;6.68;;;;;;;26.78;51.16;97666.88;5034897;28;20056;-69
2023/07/02 01:39:04;;;;;;;11.15;6.47;;;;;;;26.65;51.39;97669.69;5004276;28;20049;-68
2023/07/02 01:41:41;;;;;;;16.63;7.80;;;;;;;26.83;51.50;97658.56;5010280;28;20125;-69
2023/07/02 01:44:08;;;;;;;8.32;6.22;;;;;;;26.73;50.96;97664.28;5078322;28;20039;-68
2023/07/02 01:46:34;;;;;;;12.77;6.38;;;;;;;26.75;50.56;97669.41;5094264;28;20074;-69
2023/07/02 01:49:00;;;;;;;9.48;6.28;;;;;;;26.79;50.42;97667.66;5077233;28;20120;-69
2023/07/02 01:51:27;;;;;;;7.93;6.40;;;;;;;26.73;50.70;97669.72;5094675;28;20067;-68
2023/07/02 01:53:53;;;;;;;7.93;6.32;;;;;;;26.63;50.93;97659.09;5061016;28;20040;-69
2023/07/02 01:56:19;;;;;;;9.20;6.30;;;;;;;26.73;50.79;97666.19;5077963;28;20116;-69
2023/07/02 01:58:44;;;;;;;9.90;6.18;;;;;;;26.69;51.45;97667.94;5045030;28;20441;-69
2023/07/02 02:01:10;;;;;;;9.82;6.47;;;;;;;26.83;50.81;97671.41;5044149;28;20036;-68
2023/07/02 02:03:36;;;;;;;8.65;6.13;;;;;;;26.88;50.58;97665.84;5060327;28;20024;-68
2023/07/02 02:06:02;;;;;;;10.20;6.47;;;;;;;26.84;50.58;97660.19;5077576;28;20471;-69
2023/07/02 02:08:28;;;;;;;8.30;6.13;;;;;;;26.81;50.81;97660.00;5061388;28;20134;-70
2023/07/02 02:10:54;;;;;;;8.68;6.03;;;;;;;26.88;50.64;97663.13;5044857;28;20043;-69
2023/07/02 02:13:21;;;;;;;7.40;5.63;;;;;;;26.96;50.23;97675.97;5061549;28;20055;-69
2023/07/02 02:15:47;;;;;;;9.40;6.00;;;;;;;27.05;50.09;97677.63;5060784;28;20117;-68
2023/07/02 02:18:13;;;;;;;10.23;5.70;;;;;;;26.73;51.13;97674.34;5060148;28;20059;-69
2023/07/02 02:20:59;;;;;;;13.07;6.65;;;;;;;26.79;51.27;97673.94;5051010;28;20419;-68
2023/07/02 02:23:25;;;;;;;9.57;5.70;;;;;;;26.78;51.19;97677.78;5059549;28;20063;-69
2023/07/02 02:25:51;;;;;;;7.85;5.97;;;;;;;26.89;51.30;97676.44;5059151;28;20052;-69
2023/07/02 02:28:18;;;;;;;11.70;6.07;;;;;;;26.78;51.10;97663.34;5042618;28;20044;-69
2023/07/02 02:30:44;;;;;;;9.43;5.15;;;;;;;26.72;51.23;97668.13;5075653;28;20036;-68
2023/07/02 02:33:10;;;;;;;6.68;5.38;;;;;;;26.74;51.56;97675.97;5055423;28;20155;-69
2023/07/02 02:35:35;;;;;;;7.10;5.30;;;;;;;26.88;51.36;97684.91;5039211;28;20436;-68
2023/07/02 02:38:04;;;;;;;11.80;6.30;;;;;;;27.00;51.47;97671.53;5023070;28;20207;-68
2023/07/02 02:40:30;;;;;;;8.80;5.93;;;;;;;27.03;51.25;97676.34;5039142;28;20070;-69
2023/07/02 02:42:56;;;;;;;7.72;5.50;;;;;;;27.04;51.13;97675.22;5023131;28;20049;-68
2023/07/02 02:45:23;;;;;;;8.70;5.00;;;;;;;27.09;50.56;97677.81;5023447;28;20348;-69
2023/07/02 02:47:49;;;;;;;7.00;5.47;;;;;;;27.10;50.62;97682.16;5023242;28;20045;-68
2023/07/02 02:50:15;;;;;;;13.73;6.90;;;;;;;27.17;50.82;97685.25;5023524;28;20040;-69
2023/07/02 02:52:41;;;;;;;6.93;5.10;;;;;;;27.06;50.92;97681.97;5056078;28;20048;-68
2023/07/02 02:55:10;;;;;;;11.02;6.00;;;;;;;27.07;50.76;97674.59;5006914;28;20048;-69
2023/07/02 02:57:36;;;;;;;7.72;5.22;;;;;;;27.06;51.16;97678.44;5061928;28;20060;-69
2023/07/02 03:00:03;;;;;;;9.10;5.88;;;;;;;27.22;50.65;97690.56;5075793;28;20085;-69
2023/07/02 03:02:30;;;;;;;7.75;4.78;;;;;;;27.36;50.37;97697.56;5026120;28;20113;-68
2023/07/02 03:04:56;;;;;;;7.57;5.50;;;;;;;27.45;49.96;97692.16;5055937;28;20048;-69
2023/07/02 03:07:23;;;;;;;7.72;4.85;;;;;;;27.50;49.53;97687.38;5059519;28;20036;-69
2023/07/02 03:09:49;;;;;;;14.13;6.25;;;;;;;27.75;48.59;97692.13;5093157;28;20096;-68
2023/07/02 03:12:15;;;;;;;11.32;5.40;;;;;;;27.81;48.43;97700.97;5042675;28;20063;-68
2023/07/02 03:14:41;;;;;;;8.48;5.18;;;;;;;28.18;47.05;97710.59;5042657;28;20400;-69
2023/07/02 03:17:06;;;;;;;14.85;5.15;;;;;;;28.32;46.46;97697.59;5059287;28;20467;-69
2023/07/02 03:19:32;;;;;;;8.95;5.20;;;;;;;28.39;46.45;97701.47;5059415;28;20067;-68
2023/07/02 03:21:58;;;;;;;7.47;5.00;;;;;;;28.48;46.20;97715.97;5059266;28;20044;-68
2023/07/02 03:24:24;;;;;;;6.97;5.18;;;;;;;28.57;45.99;97713.25;5075326;28;20087;-69
2023/07/02 03:26:51;;;;;;;10.27;5.78;;;;;;;28.40;46.40;97700.34;5059089;28;20105;-69
2023/07/02 03:29:19;;;;;;;5.25;4.68;;;;;;;28.42;45.95;97700.03;5092387;28;20112;-68
2023/07/02 03:31:45;;;;;;;5.90;4.82;;;;;;;28.37;46.10;97714.63;5059020;28;20097;-68
2023/07/02 03:34:12;;;;;;;7.57;4.88;;;;;;;28.24;46.18;97701.13;5058919;28;20032;-69
2023/07/02 03:36:37;;;;;;;6.65;4.60;;;;;;;28.41;45.56;97712.88;5058788;28;20061;-69
2023/07/02 03:39:04;;;;;;;8.07;4.80;;;;;;;28.57;45.40;97716.78;5058728;28;20043;-68
2023/07/02 03:41:31;;;;;;;8.20;4.85;;;;;;;28.36;45.81;97718.50;5058612;28;20381;-69
2023/07/02 03:43:57;;;;;;;5.65;4.63;;;;;;;28.55;45.60;97719.03;5075484;28;20055;-69
2023/07/02 03:46:24;;;;;;;6.68;4.78;;;;;;;28.48;45.27;97726.88;5075532;28;20039;-70
2023/07/02 03:48:50;;;;;;;6.30;4.55;;;;;;;28.68;44.95;97737.19;5092243;28;20044;-69
2023/07/02 03:51:16;;;;;;;10.50;4.95;;;;;;;28.53;45.04;97740.41;5058465;28;20040;-69
2023/07/02 03:53:42;;;;;;;7.25;4.95;;;;;;;28.65;44.66;97726.91;5058691;28;20048;-69
2023/07/02 03:56:08;;;;;;;9.13;5.50;;;;;;;28.79;44.30;97738.50;5042114;28;20188;-68
2023/07/02 03:58:35;;;;;;;11.95;5.40;;;;;;;28.84;44.08;97735.59;5074507;28;20067;-69
2023/07/02 04:01:01;;;;;;;10.65;5.30;;;;;;;28.91;43.73;97741.38;5075022;28;20072;-68
2023/07/02 04:03:26;;;;;;;9.10;4.50;;;;;;;28.86;43.72;97732.56;5044536;28;20496;-69
2023/07/02 04:05:52;;;;;;;7.85;4.43;;;;;;;28.91;43.81;97735.91;5061175;28;20043;-69
2023/07/02 04:08:20;;;;;;;6.13;4.65;;;;;;;29.04;43.31;97737.69;5091522;28;20041;-68
2023/07/02 04:10:47;;;;;;;7.22;4.57;;;;;;;29.03;43.37;97747.00;5037278;28;20114;-69
2023/07/02 04:13:14;;;;;;;6.07;4.65;;;;;;;29.09;42.67;97751.19;5036911;28;20051;-69
2023/07/02 04:15:41;;;;;;;7.65;4.85;;;;;;;29.12;42.36;97739.63;5053816;28;20044;-69
2023/07/02 04:18:07;;;;;;;6.35;4.03;;;;;;;29.32;42.04;97747.16;5020783;28;20322;-69
2023/07/02 04:20:33;;;;;;;5.30;4.13;;;;;;;29.17;41.99;97744.94;5020876;28;20036;-69
2023/07/02 04:22:59;;;;;;;8.00;4.07;;;;;;;29.41;41.26;97749.88;5020432;28;20052;-69
2023/07/02 04:25:25;;;;;;;5.07;4.30;;;;;;;29.32;41.64;97736.22;5053973;28;20118;-69
2023/07/02 04:27:56;;;;;;;9.93;4.55;;;;;;;29.51;41.25;97752.25;5020550;28;20212;-68
2023/07/02 04:30:22;;;;;;;5.65;4.05;;;;;;;29.51;40.99;97761.28;5021642;28;20415;-70
2023/07/02 04:32:48;;;;;;;4.63;4.05;;;;;;;29.39;41.06;97763.06;5037007;28;20036;-69
2023/07/02 04:35:14;;;;;;;6.82;4.68;;;;;;;29.37;40.76;97752.47;5036763;28;20052;-68
2023/07/02 04:37:40;;;;;;;7.05;4.30;;;;;;;29.52;40.40;97762.09;5003862;28;20211;-69
2023/07/02 04:40:09;;;;;;;7.22;4.45;;;;;;;29.60;40.36;97756.59;4988059;28;20051;-69
2023/07/02 04:42:37;;;;;;;6.53;4.00;;;;;;;29.82;39.98;97768.47;5020468;28;20045;-69
2023/07/02 04:45:08;;;;;;;8.27;4.35;;;;;;;30.02;39.69;97754.84;5055276;28;20064;-69
2023/07/02 04:47:34;;;;;;;7.60;4.22;;;;;;;29.92;39.33;97760.72;5046808;28;20113;-69
2023/07/02 04:50:02;;;;;;;9.18;4.00;;;;;;;30.17;39.08;97772.69;5059010;28;20044;-70
2023/07/02 04:52:30;;;;;;;6.43;4.38;;;;;;;30.26;38.71;97776.22;5091827;28;20109;-69
2023/07/02 04:54:56;;;;;;;7.95;4.38;;;;;;;30.32;38.42;97772.94;5058157;28;20040;-69
2023/07/02 04:57:22;;;;;;;6.13;4.10;;;;;;;30.36;38.14;97781.28;5057482;28;20040;-69
2023/07/02 04:59:47;;;;;;;7.57;4.40;;;;;;;30.33;37.84;97771.81;5040963;28;20452;-69
2023/07/02 05:02:13;;;;;;;7.72;4.30;;;;;;;30.55;37.69;97787.94;5090961;28;20452;-69
2023/07/02 05:04:40;;;;;;;6.60;4.25;;;;;;;30.68;37.76;97777.88;5057618;28;20040;-69
2023/07/02 05:07:07;;;;;;;9.70;4.70;;;;;;;30.82;37.17;97779.25;5040868;28;20097;-69
2023/07/02 05:09:33;;;;;;;8.63;3.70;;;;;;;31.09;36.95;97786.16;5057518;28;20452;-70
2023/07/02 05:11:59;;;;;;;8.80;4.25;;;;;;;31.24;36.45;97779.25;5059326;28;20115;-69
2023/07/02 05:14:25;;;;;;;9.85;4.03;;;;;;;31.19;36.13;97780.25;5061384;28;20066;-69
2023/07/02 05:16:51;;;;;;;4.72;3.75;;;;;;;31.15;36.32;97782.06;5077790;28;20032;-69
2023/07/02 05:19:19;;;;;;;6.78;4.05;;;;;;;31.31;36.15;97785.03;5061690;28;20036;-69
2023/07/02 05:21:45;;;;;;;7.00;4.35;;;;;;;31.04;36.31;97783.63;5078011;28;20058;-69
2023/07/02 05:24:11;;;;;;;4.88;3.92;;;;;;;31.00;36.14;97774.44;5061515;28;20044;-69
2023/07/02 05:26:37;;;;;;;6.25;4.13;;;;;;;30.97;36.24;97777.84;5077890;28;20294;-69
2023/07/02 05:29:05;;;;;;;7.28;4.25;;;;;;;31.08;35.91;97779.88;5094542;28;20087;-69
2023/07/02 05:31:31;;;;;;;8.77;3.88;;;;;;;31.30;35.95;97784.22;5044766;28;20040;-70
2023/07/02 05:33:58;;;;;;;9.35;4.22;;;;;;;31.33;35.35;97788.22;5061401;28;20040;-69
2023/07/02 05:36:24;;;;;;;7.18;4.40;;;;;;;31.18;35.36;97786.88;5044364;28;20051;-69
2023/07/02 05:38:50;;;;;;;7.28;4.03;;;;;;;31.29;34.81;97779.88;5061147;28;20040;-69
2023/07/02 05:41:20;;;;;;;5.72;3.92;;;;;;;31.68;35.02;97778.50;5044687;28;20082;-69
2023/07/02 05:43:46;;;;;;;9.00;4.43;;;;;;;31.65;34.49;97793.72;5077737;28;20044;-69
2023/07/02 05:46:14;;;;;;;7.10;3.78;;;;;;;31.86;34.51;97796.44;5077485;28;20036;-69
2023/07/02 05:48:42;;;;;;;7.40;3.75;;;;;;;32.18;33.88;97792.81;5044355;28;20173;-69
2023/07/02 05:51:09;;;;;;;7.03;3.92;;;;;;;32.16;34.26;97795.91;5060839;28;20055;-69
2023/07/02 05:53:37;;;;;;;7.43;4.03;;;;;;;32.32;33.53;97793.28;5044305;28;20040;-69
2023/07/02 05:56:04;;;;;;;7.82;3.75;;;;;;;32.25;33.35;97793.84;5077281;28;20105;-69
2023/07/02 05:58:30;;;;;;;6.18;3.78;;;;;;;32.19;33.59;97792.47;5044434;28;20073;-69
2023/07/02 06:00:56;;;;;;;7.53;4.22;;;;;;;31.95;33.30;97778.69;5043911;28;20047;-69
2023/07/02 06:03:22;;;;;;;6.55;3.70;;;;;;;32.07;33.16;97789.72;5060531;28;20043;-69
2023/07/02 06:05:51;;;;;;;7.80;4.13;;;;;;;31.97;33.46;97778.34;5077115;28;20048;-69
2023/07/02 06:08:17;;;;;;;5.80;4.00;;;;;;;31.83;33.56;97791.63;5044335;28;20074;-69
2023/07/02 06:10:45;;;;;;;6.55;3.88;;;;;;;32.01;33.68;97790.28;5078152;28;20040;-69
2023/07/02 06:13:12;;;;;;;10.32;4.03;;;;;;;31.94;33.73;97790.84;5044341;28;20044;-69
2023/07/02 06:15:38;;;;;;;6.72;4.00;;;;;;;32.03;34.30;97790.75;5043885;28;20361;-69
2023/07/02 06:18:04;;;;;;;10.32;4.25;;;;;;;32.37;33.88;97795.81;5060552;28;20052;-69
2023/07/02 06:20:30;;;;;;;5.57;3.88;;;;;;;32.57;33.13;97792.13;5060543;28;20066;-70
2023/07/02 06:22:57;;;;;;;7.95;3.95;;;;;;;32.48;32.87;97786.78;5093266;28;20480;-68
2023/07/02 06:25:23;;;;;;;6.78;3.92;;;;;;;32.10;32.85;97780.78;5043729;28;20063;-69
2023/07/02 06:27:49;;;;;;;12.48;4.18;;;;;;;32.04;33.24;97803.31;5076828;28;20074;-69
2023/07/02 06:30:15;;;;;;;8.35;3.90;;;;;;;32.11;32.82;97807.09;5043611;28;20039;-69
2023/07/02 06:32:43;;;;;;;8.32;3.80;;;;;;;32.20;32.57;97821.53;5060338;28;20044;-69
2023/07/02 06:35:08;;;;;;;6.07;3.90;;;;;;;32.57;32.39;97803.94;5094424;28;20207;-69
2023/07/02 06:37:34;;;;;;;9.00;3.75;;;;;;;32.85;31.36;97817.75;5043277;28;20132;-70
2023/07/02 06:40:00;;;;;;;5.38;4.10;;;;;;;32.31;32.07;97816.38;5060050;28;20042;-69
2023/07/02 06:42:26;;;;;;;9.25;3.72;;;;;;;32.75;30.73;97817.44;5076611;28;20051;-69
2023/07/02 06:44:52;;;;;;;7.07;3.88;;;;;;;33.04;30.39;97812.50;5059935;28;20384;-69
2023/07/02 06:47:18;;;;;;;6.13;4.15;;;;;;;33.02;30.71;97816.72;5059578;28;20056;-69
2023/07/02 06:49:43;;;;;;;9.95;4.30;;;;;;;32.94;30.37;97809.44;5059977;28;20047;-69
2023/07/02 06:52:09;;;;;;;6.40;3.92;;;;;;;33.32;30.22;97818.81;5043482;28;20080;-69
2023/07/02 06:54:36;;;;;;;8.93;3.67;;;;;;;33.23;30.38;97817.38;5059643;28;20483;-69
2023/07/02 06:57:02;;;;;;;7.53;3.60;;;;;;;33.55;29.83;97814.38;5076610;28;20051;-69
2023/07/02 06:59:28;;;;;;;9.73;4.50;;;;;;;33.86;29.35;97813.69;5059824;28;20051;-69
2023/07/02 07:01:54;;;;;;;8.23;3.63;;;;;;;34.04;29.19;97820.47;5060222;28;20490;-69
2023/07/02 07:04:20;;;;;;;5.72;3.97;;;;;;;34.35;28.32;97816.94;5043684;28;20048;-69
2023/07/02 07:06:46;;;;;;;6.63;3.35;;;;;;;34.44;27.91;97818.38;5042773;28;20463;-69
2023/07/02 07:09:12;;;;;;;5.07;3.40;;;;;;;34.26;28.23;97808.81;5059156;28;20544;-69
2023/07/02 07:11:39;;;;;;;10.82;4.25;;;;;;;34.19;29.06;97814.16;5042729;28;20050;-70
2023/07/02 07:14:05;;;;;;;8.95;3.50;;;;;;;34.39;28.62;97821.41;5059253;28;20471;-72
2023/07/02 07:16:31;;;;;;;8.40;3.90;;;;;;;34.35;28.27;97811.41;5042695;28;20044;-68
2023/07/02 07:18:57;;;;;;;11.30;3.75;;;;;;;33.90;28.54;97814.59;5042278;28;20056;-69
2023/07/02 07:21:23;;;;;;;6.82;3.70;;;;;;;34.16;27.45;97810.19;5076112;28;20040;-70
2023/07/02 07:23:49;;;;;;;6.75;3.40;;;;;;;34.23;27.33;97821.38;5042470;28;20506;-69
2023/07/02 07:26:16;;;;;;;6.40;3.28;;;;;;;35.10;26.48;97830.19;5059197;28;20452;-68
2023/07/02 07:28:42;;;;;;;5.93;3.42;;;;;;;35.51;25.71;97828.69;5075742;28;20480;-69
2023/07/02 07:31:08;;;;;;;10.57;3.20;;;;;;;35.61;24.55;97831.66;5059061;28;20484;-70
2023/07/02 07:33:34;;;;;;;7.28;3.40;;;;;;;36.07;24.70;97829.81;5092139;28;20105;-69
2023/07/02 07:36:00;;;;;;;7.38;3.45;;;;;;;36.58;23.40;97824.78;5058958;28;20044;-69
2023/07/02 07:38:26;;;;;;;7.93;3.10;;;;;;;37.43;23.00;97824.06;5058668;28;20055;-69
2023/07/02 07:40:52;;;;;;;5.50;3.10;;;;;;;37.67;21.72;97843.00;5059215;28;20095;-69
2023/07/02 07:43:18;;;;;;;4.80;3.20;;;;;;;38.18;21.82;97819.78;5059088;28;20043;-69
2023/07/02 07:45:44;;;;;;;8.43;3.45;;;;;;;38.49;21.13;97827.59;5075298;28;20349;-69
2023/07/02 07:48:10;;;;;;;7.82;3.40;;;;;;;39.12;20.67;97816.19;5041835;28;20506;-69
2023/07/02 07:50:36;;;;;;;5.30;3.25;;;;;;;38.77;21.04;97824.25;5058989;28;20080;-69
2023/07/02 07:53:02;;;;;;;14.20;3.10;;;;;;;38.64;20.69;97809.13;5043331;28;20031;-69
2023/07/02 07:55:28;;;;;;;3.53;2.72;;;;;;;39.14;20.47;97822.16;5092627;28;20075;-69
2023/07/02 07:57:54;;;;;;;4.22;2.85;;;;;;;40.53;18.96;97828.56;5041538;28;20090;-71
2023/07/02 08:00:20;;;;;;;6.63;2.88;;;;;;;42.18;17.36;97839.19;5056873;28;20056;-70
2023/07/02 08:02:48;;;;;;;4.20;2.90;;;;;;;43.97;15.75;97831.03;5040444;28;20048;-70
2023/07/02 08:05:14;;;;;;;6.88;2.90;;;;;;;44.60;14.89;97833.66;5030217;28;20057;-70
2023/07/02 08:07:42;;;;;;;4.05;2.63;;;;;;;45.39;14.76;97819.88;5014047;28;20068;-71
2023/07/02 08:10:09;;;;;;;8.93;3.20;;;;;;;46.03;13.86;97822.88;5013478;28;20084;-73
2023/07/02 08:12:35;;;;;;;6.00;3.03;;;;;;;45.38;14.05;97812.66;5013676;28;20049;-70
2023/07/02 08:15:00;;;;;;;7.25;3.40;;;;;;;44.16;14.40;97817.19;4996943;28;20057;-70
2023/07/02 08:17:27;;;;;;;8.75;3.17;;;;;;;42.60;15.44;97815.75;5014854;28;20091;-71
2023/07/02 08:19:53;;;;;;;5.85;3.30;;;;;;;41.49;16.23;97802.91;4997444;28;20065;-70
2023/07/02 08:22:19;;;;;;;11.35;3.70;;;;;;;40.93;17.20;97814.22;5030370;28;20041;-73
2023/07/02 08:24:45;;;;;;;8.73;3.65;;;;;;;41.58;16.97;97816.44;5030111;28;20049;-69
2023/07/02 08:27:13;;;;;;;12.40;3.75;;;;;;;41.93;16.70;97818.25;4997134;28;20045;-70
2023/07/02 08:29:39;;;;;;;11.93;3.17;;;;;;;40.45;17.92;97799.13;5013706;28;20053;-72
2023/07/02 08:32:06;;;;;;;9.77;3.88;;;;;;;39.77;18.29;97816.06;5017207;28;20045;-70
2023/07/02 08:34:33;;;;;;;7.78;3.20;;;;;;;39.22;18.79;97820.19;5001455;28;20064;-69
2023/07/02 08:37:00;;;;;;;5.63;3.40;;;;;;;39.34;18.84;97817.06;5030727;28;20090;-70
2023/07/02 08:39:27;;;;;;;7.45;3.60;;;;;;;40.94;16.89;97821.38;5041073;28;20039;-69
2023/07/02 08:41:53;;;;;;;14.07;3.65;;;;;;;43.45;15.14;97833.28;5041225;28;20047;-69
2023/07/02 08:44:21;;;;;;;6.15;3.30;;;;;;;43.22;14.97;97827.56;5056290;28;20063;-70
2023/07/02 08:46:50;;;;;;;9.15;3.92;;;;;;;41.41;16.08;97823.63;5023002;28;20396;-69
2023/07/02 08:49:17;;;;;;;6.43;3.63;;;;;;;42.60;15.51;97821.34;5056995;28;20059;-69
2023/07/02 08:51:47;;;;;;;9.95;3.63;;;;;;;44.96;13.82;97827.47;5056482;28;20510;-69
2023/07/02 08:54:14;;;;;;;11.55;2.90;;;;;;;46.79;12.27;97816.63;5023395;28;20122;-72
2023/07/02 08:56:40;;;;;;;5.13;3.25;;;;;;;45.58;12.79;97799.44;5040258;28;20482;-70
2023/07/02 08:59:07;;;;;;;9.77;3.33;;;;;;;45.26;13.56;97811.28;5039983;28;20052;-70
2023/07/02 09:01:50;;;;;;;8.90;3.38;;;;;;;46.38;12.59;97821.28;5073213;28;20055;-70
2023/07/02 09:04:25;;;;;;;7.75;3.42;;;;;;;48.12;11.72;97825.31;5036521;28;20067;-70
2023/07/02 09:07:07;;;;;;;5.15;3.10;;;;;;;48.91;10.79;97828.72;5037168;28;20487;-70
2023/07/02 09:09:45;;;;;;;7.97;3.08;;;;;;;50.07;10.10;97816.75;5019767;28;20047;-70
2023/07/02 09:12:28;;;;;;;11.25;3.35;;;;;;;50.89;8.82;97828.31;5036467;28;20044;-70
2023/07/02 09:14:59;;;;;;;9.90;3.20;;;;;;;50.22;9.28;97826.25;5052598;28;20190;-70
2023/07/02 09:17:29;;;;;;;7.13;3.30;;;;;;;48.78;9.82;97823.13;5052920;28;20041;-70
2023/07/02 09:19:55;;;;;;;6.25;3.53;;;;;;;46.82;10.93;97804.50;5003211;28;20140;-70
2023/07/02 09:22:22;;;;;;;5.15;3.38;;;;;;;44.55;12.52;97814.53;5035985;28;20047;-71
2023/07/02 09:24:54;;;;;;;5.50;3.10;;;;;;;42.99;13.77;97816.22;5036134;28;20078;-70
2023/07/02 09:27:21;;;;;;;11.45;4.18;;;;;;;42.26;14.89;97807.25;5019451;28;20051;-70
2023/07/02 09:29:54;;;;;;;7.22;4.30;;;;;;;41.46;16.12;97809.28;5019625;28;20048;-70
2023/07/02 09:32:26;;;;;;;5.25;3.47;;;;;;;41.00;16.35;97805.03;5019880;28;20041;-70
2023/07/02 09:34:55;;;;;;;9.00;4.28;;;;;;;40.20;16.86;97806.63;5030570;28;20520;-70
2023/07/02 09:37:21;;;;;;;8.55;4.03;;;;;;;39.59;17.41;97806.88;5073854;28;20436;-69
2023/07/02 09:39:51;;;;;;;8.65;4.28;;;;;;;39.26;17.99;97799.59;5073533;28;20048;-70
2023/07/02 09:42:19;;;;;;;7.35;4.47;;;;;;;39.08;18.23;97811.78;5090712;28;20040;-69
2023/07/02 09:44:45;;;;;;;8.68;4.05;;;;;;;38.68;18.30;97809.94;5090678;28;20048;-70
2023/07/02 09:47:13;;;;;;;6.45;3.92;;;;;;;38.52;19.07;97803.84;5073835;28;20056;-70
2023/07/02 09:49:47;;;;;;;9.52;4.28;;;;;;;38.94;18.81;97806.94;5055833;28;20062;-70
2023/07/02 09:52:14;;;;;;;7.13;3.67;;;;;;;39.63;18.03;97813.25;5056090;28;20124;-70
2023/07/02 09:54:41;;;;;;;7.20;4.00;;;;;;;41.22;16.96;97817.75;5023221;28;20066;-70
2023/07/02 09:57:07;;;;;;;8.55;4.18;;;;;;;40.30;17.30;97813.44;5039984;28;20435;-72
2023/07/02 09:59:34;;;;;;;5.53;3.42;;;;;;;41.11;17.02;97811.41;5059656;28;20060;-70
2023/07/02 10:02:00;;;;;;;6.03;4.22;;;;;;;40.81;16.87;97825.75;5042940;28;20092;-69
2023/07/02 10:04:26;;;;;;;6.97;3.60;;;;;;;40.12;17.39;97819.75;5042689;28;20044;-69
2023/07/02 10:06:54;;;;;;;7.90;3.45;;;;;;;40.30;17.53;97814.25;5026154;28;20100;-70
2023/07/02 10:09:21;;;;;;;8.50;3.80;;;;;;;40.16;17.72;97808.63;5059250;28;20120;-69
2023/07/02 10:11:47;;;;;;;6.00;3.78;;;;;;;39.48;18.06;97825.50;5042770;28;20052;-70
2023/07/02 10:14:13;;;;;;;7.95;3.50;;;;;;;39.14;18.42;97824.13;5059430;28;20046;-69
2023/07/02 10:16:53;;;;;;;7.43;3.80;;;;;;;38.81;18.96;97821.53;5042914;28;20044;-70
2023/07/02 10:19:19;;;;;;;6.35;3.65;;;;;;;38.16;19.53;97816.63;5042483;28;20094;-70
2023/07/02 10:21:48;;;;;;;9.15;3.67;;;;;;;37.90;19.45;97805.66;5077099;28;20052;-73
2023/07/02 10:24:16;;;;;;;9.10;3.72;;;;;;;37.90;19.03;97811.19;5062376;28;20044;-70
2023/07/02 10:26:59;;;;;;;9.57;4.03;;;;;;;38.86;17.89;97818.38;5027523;28;20400;-70
2023/07/02 10:29:27;;;;;;;6.53;3.40;;;;;;;39.15;17.72;97828.50;5093862;28;20124;-70
2023/07/02 10:31:55;;;;;;;8.88;4.15;;;;;;;39.61;17.79;97823.97;5077070;28;20048;-70
2023/07/02 10:34:35;;;;;;;8.23;3.55;;;;;;;39.87;16.41;97815.34;5077100;28;20071;-69
2023/07/02 10:37:02;;;;;;;4.30;3.05;;;;;;;41.94;14.83;97826.22;5060225;28;20089;-70
2023/07/02 10:39:32;;;;;;;8.88;3.13;;;;;;;44.07;13.39;97838.50;5076949;28;20079;-71
2023/07/02 10:42:08;;;;;;;8.30;3.58;;;;;;;43.99;13.63;97828.63;5093537;28;20058;-71
2023/07/02 10:44:35;;;;;;;5.72;2.83;;;;;;;44.56;12.96;97827.31;5042933;28;20040;-70
2023/07/02 10:47:05;;;;;;;6.07;2.88;;;;;;;45.54;12.11;97810.72;5092608;28;20139;-70
2023/07/02 10:49:32;;;;;;;6.38;2.95;;;;;;;42.77;13.44;97815.66;5075855;28;20360;-70
2023/07/02 10:52:03;;;;;;;5.88;3.30;;;;;;;42.14;14.46;97821.69;5075667;28;20043;-70
2023/07/02 10:54:43;;;;;;;5.15;2.97;;;;;;;40.27;16.32;97809.47;5059441;28;20047;-69
2023/07/02 10:57:11;;;;;;;5.90;3.70;;;;;;;39.16;17.61;97805.09;5075692;28;20051;-70
2023/07/02 10:59:37;;;;;;;10.80;3.40;;;;;;;40.77;16.18;97805.47;5058857;28;20072;-70
2023/07/02 11:02:03;;;;;;;4.70;3.33;;;;;;;41.57;15.67;97823.19;5058173;28;20094;-70
2023/07/02 11:04:33;;;;;;;5.78;3.35;;;;;;;42.87;14.44;97813.97;5040848;28;20126;-69
2023/07/02 11:07:00;;;;;;;6.75;3.22;;;;;;;43.15;13.98;97838.81;5048468;28;20380;-70
2023/07/02 11:09:27;;;;;;;6.63;3.13;;;;;;;42.30;14.54;97810.81;5045936;28;20394;-74
2023/07/02 11:12:00;;;;;;;13.98;3.38;;;;;;;41.70;14.86;97818.75;5031830;28;20036;-69
2023/07/02 11:14:34;;;;;;;9.25;3.03;;;;;;;40.17;16.07;97815.78;5082198;28;20043;-70
2023/07/02 11:17:05;;;;;;;8.13;3.22;;;;;;;37.94;18.16;97806.47;5055608;28;20069;-72
2023/07/02 11:19:32;;;;;;;5.07;3.00;;;;;;;37.93;18.50;97815.97;5047965;28;20127;-72
2023/07/02 11:21:59;;;;;;;6.70;3.20;;;;;;;36.08;18.13;97819.53;5047726;28;20365;-71
2023/07/02 11:24:36;;;;;;;5.93;3.60;;;;;;;36.71;18.23;97824.22;5046789;28;20483;-74
2023/07/02 11:27:30;;;;;;;7.53;3.30;;;;;;;36.18;18.64;97828.03;5046638;28;20135;-72
2023/07/02 11:29:59;;;;;;;10.23;3.40;;;;;;;36.53;18.71;97836.97;5035230;28;20132;-72
2023/07/02 11:32:25;;;;;;;7.13;3.28;;;;;;;37.06;18.36;97830.28;5039237;28;20043;-71